Skip Navigation LinksHome page > Weather > Current weather Skip Navigation Links

Current Weather

Ronald Reagan Washington National, Washington

For information only: do not use for flight planning or navigation.
Latest weather
Observation time Monday, December 22, 2014 10:52 AM EST
Local time Monday, December 22, 2014 11:20 AM EST
Flight conditions Visual Meteorological Conditions
Winds
Wind direction North-Northeast (30°)
Wind speed 7 mph
Visibility 9 mi.
Sky condition
Ceiling 4,700 ft. overcast
Cloud layer overcast 4,700 ft.
Temperature 38°F
Dewpoint 27°F
Altimeter 30.29 in.Hg
Derived measurements
Relative humidity 64%
Wind chill 33°F
Density altitude -1750 ft.
Sea-level pressure 30.29 in.Hg
Remarks
Automated weather observing station with precipitation discriminator.
METAR KDCA 221552Z 03006KT 9SM OVC047 03/M03 A3029 RMK AO2 SLP257 T00331028

Settings

Location code

InnerDrive.Weather 4.0.5399.0 Release CLR 4.0.30319.34014
Copyright ©2014 Inner Drive Technology. All rights reserved. Portions Copyright ©1986-2014 David Braverman.

Find weather

Site navigation


Skip Navigation Links

Place info

Page info

PayPal - The safer, easier way to pay online!

Return home.

Copyright ©2014 Inner Drive Technology. Purveyors of fine, hand-crafted computer software. Page printed 2014-12-22T16:20:01 UTC.